Morganton, NC (28655)

4:35 PM EDT on July 01, 2015 (GMT -0400)
Burkemont | | Change Station
CLOSE
Current Station
Personal Weather Station
Location: Morganton, NC
Elevation: 1188 ft
Nearby Weather Stations

Elev 1188 ft 35.73 °N, 81.69 °W | Updated 53 seconds ago

Mostly Cloudy
Mostly Cloudy
82.2 °F
Feels Like 85 °F
N
5.8
Wind Variable Wind from WSW
Gusts 5.8 mph

Today
High -- | Low -- °F
--% Chance of Precip.
Yesterday
High -- | Low -- °F
Precip. -- in
6:14 AM 8:46 PM
Full, 100% visible
Pressure 30.01 in
Visibility 5.0 miles
Clouds Scattered Clouds 1200 ft
Scattered Clouds 2300 ft
Mostly Cloudy 5500 ft
Heat Index 85 °F
Dew Point 67 °F
Humidity 60%
Rainfall 0.00 in
Snow Depth Not available.
UV 4 out of 12
Pollen 3.20 out of 12
Air Quality Not available.
Flu Activity Not available.
METAR KMRN 012015Z AUTO 36003KT 5SM -RA SCT012 SCT023 BKN055 23/21 A3001 RMK AO2 P0004 T02300209

More Conditions Fewer Conditions

Pressure 30.01 in
Visibility 5.0 miles
Clouds Scattered Clouds 1200 ft
Scattered Clouds 2300 ft
Mostly Cloudy 5500 ft
Heat Index 85 °F
Dew Point 67 °F
Humidity 60%
Rainfall 0.00 in
Snow Depth Not available.
UV 4 out of 12
Pollen 3.20 out of 12
Air Quality Not available.
Flu Activity Not available.
METAR KMRN 012015Z AUTO 36003KT 5SM -RA SCT012 SCT023 BKN055 23/21 A3001 RMK AO2 P0004 T02300209

More Conditions Fewer Conditions

10-Day Weather Forecast

×

Almanac

Astronomy

Jul. 01, 2015 Rise Set
Actual Time
Civil Twilight
Nautical Twilight
Astronomical Twilight
Moon
Length of Visible Light
Length of Day
Tomorrow will be .
, % of the Moon is Illuminated

Today's Extremes

State Highs State Lows

Community

WunderPhotos

Upload Photos

1,834,275 photos uploaded!

WunderBlogs® & News

Nearby

Air Quality

  Air Quality AQ Index Pollutant
Not available.

Snow Depth

Station Depth Elevation

Earthquake Activity

City Distance Mag. Time & Date
Minimum magnitude displayed is 2.5.

Coastal Water Temperatures

Place Temperature

Stations

Nearby Weather Stations

Station Location Temp. Windchill Dew Point Humidity Wind Precip. Elev Updated Type